Time;durP1;ratioP1;P1;durP2;ratioP2;P2;SDS_P1;SDS_P2;PMS_P1;PMS_P2;Temp;Humidity;BMP_temperature;BMP_pressure;BME280_temperature;BME280_humidity;BME280_pressure;Samples;Min_cycle;Max_cycle;Signal;HPM_P1;HPM_P2
2021/12/24 00:00:03;;;;;;;41.95;24.70;;;;;;;;;;5012104;28;20093;-68
2021/12/24 00:02:29;;;;;;;42.65;25.15;;;;;;;;;;5002788;28;20707;-67
2021/12/24 00:04:56;;;;;;;40.38;23.85;;;;;;;;;;5012140;28;20095;-68
2021/12/24 00:07:22;;;;;;;41.60;22.77;;;;;;;;;;5001352;28;20069;-67
2021/12/24 00:09:48;;;;;;;36.63;22.65;;;;;;;;;;4996115;28;20061;-68
2021/12/24 00:12:19;;;;;;;38.95;23.25;;;;;;;;;;5015474;28;20409;-68
2021/12/24 00:14:50;;;;;;;40.70;23.90;;;;;;;;;;5011731;28;20049;-68
2021/12/24 00:17:23;;;;;;;42.13;24.77;;;;;;;;;;5017795;28;20064;-68
2021/12/24 00:36:01;;;;;;;45.10;25.67;;;;;;;;;;5020671;28;20072;-68
2021/12/24 00:38:27;;;;;;;42.00;22.95;;;;;;;;;;5011432;28;20064;-68
2021/12/24 00:40:55;;;;;;;44.22;25.17;;;;;;;;;;5008888;28;20054;-68
2021/12/24 00:43:22;;;;;;;47.33;25.63;;;;;;;;;;5000382;28;20049;-69
2021/12/24 00:45:51;;;;;;;41.17;23.15;;;;;;;;;;5015986;28;20313;-69
2021/12/24 00:48:18;;;;;;;48.60;27.15;;;;;;;;;;5021231;28;20058;-68
2021/12/24 00:56:13;;;;;;;47.17;25.50;;;;;;;;;;4995657;28;20046;-68
2021/12/24 00:58:40;;;;;;;49.78;26.08;;;;;;;;;;5002098;28;20053;-68
2021/12/24 01:01:08;;;;;;;51.47;26.05;;;;;;;;;;4994406;28;20517;-68
2021/12/24 01:03:35;;;;;;;46.30;24.17;;;;;;;;;;5006156;28;20542;-68
2021/12/24 01:06:02;;;;;;;43.90;24.27;;;;;;;;;;5001361;28;20054;-68
2021/12/24 01:08:28;;;;;;;42.38;24.45;;;;;;;;;;4986765;28;20053;-68
2021/12/24 01:10:56;;;;;;;42.88;22.55;;;;;;;;;;4997363;28;20285;-68
2021/12/24 01:13:24;;;;;;;39.60;23.20;;;;;;;;;;4964765;28;20060;-68
2021/12/24 01:16:20;;;;;;;34.90;21.33;;;;;;;;;;5006715;28;20045;-68
2021/12/24 01:23:49;;;;;;;39.00;21.83;;;;;;;;;;5011573;28;20049;-68
2021/12/24 01:26:32;;;;;;;42.10;20.88;;;;;;;;;;5006593;28;20494;-69
2021/12/24 01:29:35;;;;;;;36.00;20.33;;;;;;;;;;5001419;28;20053;-68
2021/12/24 01:40:25;;;;;;;28.65;17.73;;;;;;;;;;5009298;28;20121;-68
2021/12/24 01:42:52;;;;;;;27.95;16.77;;;;;;;;;;5001302;28;20054;-69
2021/12/24 01:45:26;;;;;;;27.05;16.80;;;;;;;;;;5014835;28;20053;-69
2021/12/24 01:47:55;;;;;;;28.70;17.08;;;;;;;;;;5010244;28;20135;-68
2021/12/24 01:50:22;;;;;;;23.08;15.13;;;;;;;;;;5020550;28;20054;-69
2021/12/24 01:52:50;;;;;;;24.38;15.50;;;;;;;;;;5007186;28;20063;-69
2021/12/24 01:55:17;;;;;;;25.90;15.25;;;;;;;;;;5015040;28;20565;-69
2021/12/24 01:57:44;;;;;;;24.77;14.68;;;;;;;;;;4996909;28;20061;-68
2021/12/24 02:00:12;;;;;;;21.25;14.35;;;;;;;;;;5007963;28;20060;-69
2021/12/24 02:02:39;;;;;;;;;;;;;;;;;;5020786;28;20057;-67
2021/12/24 02:05:05;;;;;;;23.75;14.90;;;;;;;;;;5012925;28;20040;-69
2021/12/24 02:07:32;;;;;;;21.98;14.65;;;;;;;;;;5013877;28;20053;-69
2021/12/24 02:09:58;;;;;;;22.50;13.25;;;;;;;;;;5003592;28;20053;-69
2021/12/24 02:12:25;;;;;;;25.27;16.17;;;;;;;;;;5021603;28;20482;-69
2021/12/24 02:14:56;;;;;;;23.27;15.57;;;;;;;;;;5020470;28;20546;-69
2021/12/24 02:30:55;;;;;;;34.28;19.33;;;;;;;;;;5020030;28;20056;-69
2021/12/24 02:33:22;;;;;;;31.67;19.33;;;;;;;;;;4988518;28;20549;-69
2021/12/24 02:35:48;;;;;;;32.38;19.42;;;;;;;;;;5010622;28;20080;-69
2021/12/24 02:38:14;;;;;;;33.83;20.45;;;;;;;;;;5009380;28;20049;-69
2021/12/24 02:40:41;;;;;;;32.67;19.23;;;;;;;;;;5010859;28;20509;-69
2021/12/24 02:43:12;;;;;;;33.10;18.65;;;;;;;;;;5005420;28;20045;-69
2021/12/24 02:45:41;;;;;;;35.50;20.10;;;;;;;;;;4994576;28;20041;-69
2021/12/24 02:56:45;;;;;;;37.85;19.17;;;;;;;;;;4968469;28;20061;-69
2021/12/24 02:59:13;;;;;;;40.58;22.25;;;;;;;;;;4976690;28;20054;-69
2021/12/24 03:01:40;;;;;;;37.63;22.23;;;;;;;;;;4963450;28;20061;-69
2021/12/24 03:04:08;;;;;;;43.25;21.67;;;;;;;;;;4962085;28;20057;-69
2021/12/24 03:06:42;;;;;;;43.25;22.00;;;;;;;;;;4971702;28;20461;-68
2021/12/24 03:09:11;;;;;;;44.28;22.63;;;;;;;;;;4977595;28;20751;-69
2021/12/24 03:11:38;;;;;;;53.33;27.88;;;;;;;;;;4978643;28;20050;-69
2021/12/24 03:14:05;;;;;;;47.30;25.27;;;;;;;;;;4970316;28;20606;-69
2021/12/24 03:16:32;;;;;;;57.37;26.13;;;;;;;;;;4971302;28;20054;-69
2021/12/24 03:18:59;;;;;;;54.35;25.85;;;;;;;;;;4968653;28;20290;-69
2021/12/24 03:21:31;;;;;;;47.78;24.15;;;;;;;;;;4978964;28;20058;-69
2021/12/24 03:26:34;;;;;;;54.13;25.50;;;;;;;;;;4977718;28;20200;-69
2021/12/24 03:29:01;;;;;;;49.33;25.67;;;;;;;;;;4972743;28;20439;-69
2021/12/24 03:31:27;;;;;;;51.08;25.17;;;;;;;;;;4997589;28;20060;-69
2021/12/24 03:33:54;;;;;;;46.65;25.42;;;;;;;;;;5014815;28;20092;-69
2021/12/24 03:36:21;;;;;;;52.05;25.73;;;;;;;;;;4994801;28;20382;-69
2021/12/24 03:38:48;;;;;;;52.63;25.58;;;;;;;;;;5017001;28;20057;-69
2021/12/24 03:41:14;;;;;;;49.75;23.92;;;;;;;;;;5010769;28;20050;-69
2021/12/24 03:43:40;;;;;;;45.00;22.92;;;;;;;;;;5008913;28;20057;-69
2021/12/24 03:46:11;;;;;;;47.85;24.65;;;;;;;;;;4995753;28;20049;-69
2021/12/24 03:56:31;;;;;;;42.13;20.75;;;;;;;;;;5012230;28;20072;-69
2021/12/24 03:58:58;;;;;;;39.50;19.63;;;;;;;;;;4996484;28;20412;-69
2021/12/24 04:01:24;;;;;;;34.78;17.45;;;;;;;;;;5018957;28;20062;-69
2021/12/24 04:03:51;;;;;;;33.72;17.10;;;;;;;;;;5010109;28;20103;-68
2021/12/24 04:06:18;;;;;;;31.95;15.90;;;;;;;;;;5000432;28;20130;-69
2021/12/24 04:08:44;;;;;;;27.60;15.23;;;;;;;;;;5013337;28;20045;-69
2021/12/24 04:11:11;;;;;;;33.30;16.20;;;;;;;;;;5005208;28;20041;-68
2021/12/24 04:13:37;;;;;;;25.70;14.98;;;;;;;;;;5017144;28;20407;-68
2021/12/24 04:16:04;;;;;;;30.15;15.00;;;;;;;;;;5013125;28;20114;-69
2021/12/24 04:26:29;;;;;;;28.13;13.02;;;;;;;;;;5013896;28;20529;-68
2021/12/24 04:28:55;;;;;;;28.55;13.50;;;;;;;;;;5022047;28;20581;-68
2021/12/24 04:31:28;;;;;;;25.80;13.13;;;;;;;;;;5022881;28;20053;-68
2021/12/24 04:33:59;;;;;;;32.33;14.30;;;;;;;;;;5009916;28;20395;-68
2021/12/24 05:03:12;;;;;;;25.30;12.45;;;;;;;;;;4997336;28;20041;-68
2021/12/24 05:05:49;;;;;;;24.60;11.80;;;;;;;;;;5016261;28;20420;-68
2021/12/24 05:08:22;;;;;;;22.67;11.07;;;;;;;;;;5014296;28;20068;-68
2021/12/24 05:10:49;;;;;;;29.02;12.65;;;;;;;;;;5021393;28;20790;-68
2021/12/24 05:13:16;;;;;;;23.10;12.75;;;;;;;;;;5012966;28;20084;-68
2021/12/24 05:15:45;;;;;;;23.73;12.38;;;;;;;;;;5020734;28;20053;-68
2021/12/24 05:23:55;;;;;;;26.45;10.75;;;;;;;;;;4950970;28;20062;-68
2021/12/24 05:26:21;;;;;;;27.05;11.05;;;;;;;;;;4960209;28;20137;-68
2021/12/24 05:28:47;;;;;;;23.80;10.68;;;;;;;;;;4958963;28;20054;-68
2021/12/24 05:31:14;;;;;;;19.73;10.45;;;;;;;;;;4947306;28;20265;-69
2021/12/24 05:33:40;;;;;;;23.48;10.52;;;;;;;;;;4953834;28;20518;-69
2021/12/24 05:36:07;;;;;;;21.33;10.02;;;;;;;;;;4951094;28;20054;-68
2021/12/24 05:38:33;;;;;;;21.55;10.77;;;;;;;;;;4959614;28;20050;-68
2021/12/24 05:40:59;;;;;;;21.15;10.18;;;;;;;;;;4948443;28;20517;-68
2021/12/24 05:43:26;;;;;;;23.75;10.02;;;;;;;;;;4957871;28;20470;-68
2021/12/24 05:45:52;;;;;;;19.33;9.70;;;;;;;;;;4953913;28;20506;-68
2021/12/24 05:48:18;;;;;;;20.05;9.70;;;;;;;;;;4947029;28;20598;-68
2021/12/24 05:50:45;;;;;;;34.72;11.25;;;;;;;;;;4957754;28;20089;-68
2021/12/24 05:53:11;;;;;;;18.63;9.00;;;;;;;;;;4950279;28;20051;-68
2021/12/24 05:55:37;;;;;;;16.52;8.82;;;;;;;;;;4958729;28;20563;-68
2021/12/24 05:58:07;;;;;;;19.30;9.13;;;;;;;;;;4982349;28;20404;-68
2021/12/24 06:00:36;;;;;;;22.88;9.40;;;;;;;;;;5010249;28;20057;-68
2021/12/24 06:03:02;;;;;;;;;;;;;;;;;;4999639;28;20096;-68
2021/12/24 06:05:29;;;;;;;23.98;9.52;;;;;;;;;;4986377;28;19925;-68
2021/12/24 06:07:55;;;;;;;26.30;9.57;;;;;;;;;;5001849;28;20046;-68
2021/12/24 06:10:21;;;;;;;16.55;8.20;;;;;;;;;;4992880;28;20057;-68
2021/12/24 06:12:47;;;;;;;26.50;10.55;;;;;;;;;;5015152;28;20050;-68
2021/12/24 06:15:16;;;;;;;20.58;9.20;;;;;;;;;;5007124;28;20685;-68
2021/12/24 06:17:42;;;;;;;21.02;7.82;;;;;;;;;;5019544;28;20459;-68
2021/12/24 06:20:10;;;;;;;22.88;8.82;;;;;;;;;;4999945;28;20053;-68
2021/12/24 06:22:36;;;;;;;15.30;7.97;;;;;;;;;;4994872;28;20049;-68
2021/12/24 06:25:03;;;;;;;14.30;7.65;;;;;;;;;;5019131;28;20065;-68
2021/12/24 06:27:30;;;;;;;19.92;8.27;;;;;;;;;;4992445;28;20049;-68
2021/12/24 06:29:56;;;;;;;24.60;8.55;;;;;;;;;;5015735;28;20144;-68
2021/12/24 06:32:25;;;;;;;21.23;8.32;;;;;;;;;;4995266;28;20490;-67
2021/12/24 06:34:51;;;;;;;20.00;8.77;;;;;;;;;;5003989;28;20052;-68
2021/12/24 06:37:17;;;;;;;19.33;7.47;;;;;;;;;;5006515;28;20084;-68
2021/12/24 06:39:44;;;;;;;16.30;7.50;;;;;;;;;;4995040;28;20057;-68
2021/12/24 06:42:10;;;;;;;14.73;7.88;;;;;;;;;;5003355;28;20266;-68
2021/12/24 06:44:37;;;;;;;21.40;7.78;;;;;;;;;;5007271;28;20056;-68
2021/12/24 06:47:04;;;;;;;21.55;8.13;;;;;;;;;;5020287;28;20494;-68
2021/12/24 06:49:30;;;;;;;22.00;7.88;;;;;;;;;;5011427;28;20045;-68
2021/12/24 06:51:56;;;;;;;19.02;7.85;;;;;;;;;;5005782;28;20743;-68
2021/12/24 06:54:23;;;;;;;16.40;8.15;;;;;;;;;;4991693;28;20053;-68
2021/12/24 06:56:50;;;;;;;20.00;7.47;;;;;;;;;;4989258;28;20042;-68
2021/12/24 06:59:16;;;;;;;17.35;6.85;;;;;;;;;;4999380;28;20396;-68
2021/12/24 07:01:42;;;;;;;13.40;6.55;;;;;;;;;;4996615;28;20045;-68
2021/12/24 07:04:09;;;;;;;20.77;7.43;;;;;;;;;;5019492;28;20079;-68
2021/12/24 07:06:37;;;;;;;22.20;7.00;;;;;;;;;;5012273;28;20067;-68
2021/12/24 07:09:03;;;;;;;19.03;6.97;;;;;;;;;;5008321;28;20054;-68
2021/12/24 07:11:30;;;;;;;18.73;6.47;;;;;;;;;;5017641;28;20060;-68
2021/12/24 07:13:56;;;;;;;21.23;6.75;;;;;;;;;;5011135;28;20060;-68
2021/12/24 07:16:22;;;;;;;19.20;6.03;;;;;;;;;;5019517;28;20050;-68
2021/12/24 07:18:49;;;;;;;19.27;6.65;;;;;;;;;;5010722;28;20050;-68
2021/12/24 07:21:15;;;;;;;20.27;6.75;;;;;;;;;;5011465;28;20425;-67
2021/12/24 07:23:41;;;;;;;22.98;6.28;;;;;;;;;;5005476;28;20049;-67
2021/12/24 07:26:08;;;;;;;20.85;7.30;;;;;;;;;;5018671;28;20441;-67
2021/12/24 07:28:34;;;;;;;27.38;7.80;;;;;;;;;;5020169;28;20315;-68
2021/12/24 07:31:00;;;;;;;24.85;6.70;;;;;;;;;;5011147;28;20060;-68
2021/12/24 07:33:27;;;;;;;18.00;6.75;;;;;;;;;;5013220;28;20600;-67
2021/12/24 07:35:53;;;;;;;16.10;5.72;;;;;;;;;;5004479;28;20076;-67
2021/12/24 07:38:20;;;;;;;18.58;6.38;;;;;;;;;;5016179;28;20489;-67
2021/12/24 07:40:46;;;;;;;20.55;6.53;;;;;;;;;;5016155;28;20045;-67
2021/12/24 07:43:12;;;;;;;15.65;6.28;;;;;;;;;;5001257;28;20537;-68
2021/12/24 07:45:40;;;;;;;21.73;7.65;;;;;;;;;;5019223;28;20064;-67
2021/12/24 07:48:11;;;;;;;20.48;6.32;;;;;;;;;;4996380;28;20144;-67
2021/12/24 07:53:08;;;;;;;23.00;6.60;;;;;;;;;;4998148;28;20787;-67
2021/12/24 07:55:35;;;;;;;22.25;7.28;;;;;;;;;;5017728;28;20050;-67
2021/12/24 07:58:03;;;;;;;23.30;7.63;;;;;;;;;;5023267;28;20521;-68
2021/12/24 08:00:29;;;;;;;20.15;7.65;;;;;;;;;;5015273;28;20049;-67
2021/12/24 08:02:56;;;;;;;22.85;7.75;;;;;;;;;;5017952;28;20077;-67
2021/12/24 08:05:27;;;;;;;19.63;7.30;;;;;;;;;;5013706;28;20103;-68
2021/12/24 08:07:53;;;;;;;20.02;7.68;;;;;;;;;;5014086;28;20509;-67
2021/12/24 08:10:21;;;;;;;21.83;6.97;;;;;;;;;;5014731;28;20053;-67
2021/12/24 08:12:47;;;;;;;21.45;7.28;;;;;;;;;;5008685;28;20545;-67
2021/12/24 08:15:14;;;;;;;31.35;8.25;;;;;;;;;;4998913;28;20042;-67
2021/12/24 08:17:40;;;;;;;18.27;7.75;;;;;;;;;;5009318;28;20053;-67
2021/12/24 08:20:07;;;;;;;19.23;7.50;;;;;;;;;;5006564;28;20049;-67
2021/12/24 08:22:34;;;;;;;23.73;7.88;;;;;;;;;;4998108;28;20050;-67
2021/12/24 08:25:01;;;;;;;19.70;7.93;;;;;;;;;;5014617;28;20080;-67
2021/12/24 08:27:27;;;;;;;24.85;7.47;;;;;;;;;;5001845;28;20068;-67
2021/12/24 08:29:53;;;;;;;19.85;7.13;;;;;;;;;;5004935;28;20056;-67
2021/12/24 08:32:20;;;;;;;20.25;7.25;;;;;;;;;;5008507;28;20049;-67
2021/12/24 08:34:47;;;;;;;19.58;8.07;;;;;;;;;;5007873;28;20049;-67
2021/12/24 08:37:13;;;;;;;18.25;8.32;;;;;;;;;;5017090;28;20053;-67
2021/12/24 08:39:39;;;;;;;20.92;8.20;;;;;;;;;;5000969;28;20049;-67
2021/12/24 08:42:06;;;;;;;18.00;8.02;;;;;;;;;;5007261;28;20080;-67
2021/12/24 08:44:33;;;;;;;30.25;9.35;;;;;;;;;;4996196;28;20050;-67
2021/12/24 08:47:04;;;;;;;26.70;9.23;;;;;;;;;;5010388;28;20054;-67
2021/12/24 08:49:31;;;;;;;20.13;8.48;;;;;;;;;;5004208;28;20045;-67
2021/12/24 08:51:58;;;;;;;18.95;8.15;;;;;;;;;;4996520;28;20374;-67
2021/12/24 08:54:24;;;;;;;21.05;9.30;;;;;;;;;;5008349;28;20052;-67
2021/12/24 08:56:51;;;;;;;26.17;9.70;;;;;;;;;;5000005;28;20619;-67
2021/12/24 08:59:18;;;;;;;26.75;10.35;;;;;;;;;;5007619;28;20089;-67
2021/12/24 09:01:45;;;;;;;26.30;10.85;;;;;;;;;;4993511;28;20049;-67
2021/12/24 09:04:12;;;;;;;32.88;11.00;;;;;;;;;;5001190;28;20585;-67
2021/12/24 09:06:39;;;;;;;28.15;11.60;;;;;;;;;;5012523;28;20057;-68
2021/12/24 09:09:06;;;;;;;24.85;11.57;;;;;;;;;;5014126;28;20160;-67
2021/12/24 09:11:34;;;;;;;27.02;11.93;;;;;;;;;;5014104;28;20050;-67
2021/12/24 09:14:00;;;;;;;27.58;11.93;;;;;;;;;;5010399;28;20049;-67
2021/12/24 09:16:29;;;;;;;33.35;12.15;;;;;;;;;;5021672;28;20056;-67
2021/12/24 09:19:06;;;;;;;;;;;;;;;;;;5010110;28;20061;-67
2021/12/24 09:21:33;;;;;;;23.30;11.15;;;;;;;;;;5007554;28;19925;-67
2021/12/24 09:24:06;;;;;;;29.83;11.48;;;;;;;;;;5006785;28;20049;-67
2021/12/24 09:26:34;;;;;;;22.65;11.45;;;;;;;;;;4992535;28;20049;-67
2021/12/24 09:29:02;;;;;;;26.88;11.23;;;;;;;;;;5013120;28;20510;-68
2021/12/24 09:31:28;;;;;;;26.40;10.45;;;;;;;;;;4982396;28;20045;-68
2021/12/24 09:33:55;;;;;;;27.58;10.82;;;;;;;;;;5010539;28;20057;-67
2021/12/24 09:36:26;;;;;;;32.28;11.55;;;;;;;;;;5012591;28;20620;-67
2021/12/24 09:38:53;;;;;;;24.00;10.55;;;;;;;;;;5013759;28;20167;-67
2021/12/24 09:41:20;;;;;;;22.73;10.13;;;;;;;;;;5014383;28;20068;-67
2021/12/24 09:43:47;;;;;;;22.77;9.55;;;;;;;;;;4995642;28;20509;-67
2021/12/24 09:46:13;;;;;;;20.05;9.13;;;;;;;;;;5009805;28;20099;-67
2021/12/24 09:48:40;;;;;;;24.75;8.73;;;;;;;;;;5012810;28;20053;-68
2021/12/24 09:51:07;;;;;;;20.73;9.45;;;;;;;;;;5019095;28;20049;-67
2021/12/24 09:53:36;;;;;;;26.20;10.55;;;;;;;;;;4986466;28;20049;-67
2021/12/24 09:56:03;;;;;;;25.58;10.13;;;;;;;;;;5003188;28;20045;-67
2021/12/24 09:58:29;;;;;;;22.30;8.70;;;;;;;;;;5004862;28;20060;-67
2021/12/24 10:00:56;;;;;;;24.77;9.90;;;;;;;;;;5009922;28;20053;-67
2021/12/24 10:03:33;;;;;;;25.00;9.52;;;;;;;;;;5010701;28;20398;-67
2021/12/24 10:06:00;;;;;;;28.23;9.52;;;;;;;;;;5008666;28;20064;-67
2021/12/24 10:08:27;;;;;;;21.83;9.13;;;;;;;;;;5016253;28;20048;-67
2021/12/24 10:11:02;;;;;;;25.73;8.55;;;;;;;;;;5010821;28;20049;-67
2021/12/24 10:13:28;;;;;;;25.67;9.25;;;;;;;;;;5014970;28;20083;-67
2021/12/24 10:15:57;;;;;;;22.73;9.95;;;;;;;;;;5006945;28;20048;-67
2021/12/24 10:18:31;;;;;;;21.77;9.90;;;;;;;;;;5018309;28;20046;-67
2021/12/24 10:20:58;;;;;;;22.30;9.63;;;;;;;;;;4991205;28;20045;-68
2021/12/24 10:23:38;;;;;;;24.90;10.35;;;;;;;;;;4999048;28;20136;-67
2021/12/24 10:26:16;;;;;;;20.17;8.60;;;;;;;;;;5005276;28;20217;-67
2021/12/24 10:28:55;;;;;;;25.77;9.77;;;;;;;;;;5008437;28;20064;-67
2021/12/24 10:31:22;;;;;;;20.67;8.93;;;;;;;;;;5019241;28;20061;-67
2021/12/24 10:34:05;;;;;;;28.83;10.23;;;;;;;;;;4991937;28;20076;-67
2021/12/24 10:36:32;;;;;;;31.05;10.38;;;;;;;;;;4994693;28;20050;-67
2021/12/24 10:38:58;;;;;;;30.83;10.82;;;;;;;;;;5013659;28;20753;-67
2021/12/24 10:41:27;;;;;;;28.02;10.32;;;;;;;;;;5009379;28;20057;-67
2021/12/24 10:43:53;;;;;;;28.33;9.35;;;;;;;;;;5006885;28;20442;-67
2021/12/24 10:46:22;;;;;;;22.45;8.70;;;;;;;;;;5008258;28;20319;-67
2021/12/24 10:49:03;;;;;;;25.63;9.45;;;;;;;;;;5011806;28;20495;-67
2021/12/24 10:54:28;;;;;;;21.13;9.77;;;;;;;;;;4963599;28;20053;-67
2021/12/24 10:57:15;;;;;;;24.92;10.35;;;;;;;;;;5010771;28;20505;-67
2021/12/24 10:59:43;;;;;;;34.00;9.73;;;;;;;;;;5012739;28;20053;-68
2021/12/24 11:02:10;;;;;;;17.95;8.00;;;;;;;;;;4999121;28;20057;-67
2021/12/24 11:04:37;;;;;;;21.48;7.85;;;;;;;;;;5011542;28;20045;-67
2021/12/24 11:07:29;;;;;;;21.88;7.93;;;;;;;;;;5024159;28;20072;-67
2021/12/24 11:10:14;;;;;;;21.58;8.35;;;;;;;;;;5008085;28;20049;-67
2021/12/24 11:12:48;;;;;;;30.38;8.52;;;;;;;;;;5015927;28;20045;-67
2021/12/24 11:15:23;;;;;;;29.80;8.48;;;;;;;;;;4993199;28;20068;-67
2021/12/24 11:17:50;;;;;;;21.40;9.10;;;;;;;;;;5012540;28;20045;-67
2021/12/24 11:20:17;;;;;;;24.88;8.93;;;;;;;;;;5011963;28;20045;-67
2021/12/24 11:22:57;;;;;;;20.65;8.07;;;;;;;;;;5023041;28;20056;-67
2021/12/24 11:25:24;;;;;;;19.73;8.27;;;;;;;;;;5014505;28;20072;-67
2021/12/24 11:27:51;;;;;;;25.42;7.93;;;;;;;;;;5016460;28;20056;-67
2021/12/24 11:30:18;;;;;;;25.20;8.07;;;;;;;;;;4999911;28;20412;-67
2021/12/24 11:32:45;;;;;;;19.63;7.53;;;;;;;;;;5004007;28;20046;-67
2021/12/24 11:35:13;;;;;;;22.08;7.72;;;;;;;;;;5012475;28;20080;-67
2021/12/24 11:37:44;;;;;;;25.90;7.35;;;;;;;;;;5003028;28;20562;-67
2021/12/24 11:40:14;;;;;;;22.67;7.28;;;;;;;;;;5009229;28;20072;-67
2021/12/24 11:42:49;;;;;;;19.05;6.68;;;;;;;;;;4999032;28;20049;-67
2021/12/24 11:45:16;;;;;;;17.30;6.63;;;;;;;;;;5012703;28;20060;-67
2021/12/24 11:47:43;;;;;;;18.25;5.68;;;;;;;;;;5023426;28;20053;-67
2021/12/24 11:50:09;;;;;;;17.20;5.72;;;;;;;;;;5014733;28;20057;-67
2021/12/24 11:52:35;;;;;;;18.58;6.18;;;;;;;;;;5014886;28;20053;-67
2021/12/24 11:55:02;;;;;;;18.83;6.30;;;;;;;;;;5013916;28;20053;-67
2021/12/24 11:57:28;;;;;;;23.60;5.95;;;;;;;;;;5018893;28;20053;-67
2021/12/24 11:59:55;;;;;;;21.00;6.30;;;;;;;;;;4991394;28;20048;-67
2021/12/24 12:02:41;;;;;;;15.18;5.43;;;;;;;;;;5021023;28;20081;-67
2021/12/24 12:05:16;;;;;;;17.95;5.85;;;;;;;;;;5009253;28;20802;-67
2021/12/24 12:07:42;;;;;;;26.55;8.15;;;;;;;;;;5020336;28;20381;-67
2021/12/24 12:10:09;;;;;;;23.10;13.65;;;;;;;;;;5018578;28;20107;-67
2021/12/24 12:12:38;;;;;;;20.85;6.13;;;;;;;;;;4994527;28;20084;-67
2021/12/24 12:15:23;;;;;;;19.38;5.68;;;;;;;;;;5019042;28;20083;-67
2021/12/24 12:17:51;;;;;;;20.75;5.72;;;;;;;;;;5011327;28;20051;-67
2021/12/24 12:20:56;;;;;;;17.65;6.07;;;;;;;;;;5015707;28;20502;-67
2021/12/24 12:23:45;;;;;;;20.85;6.13;;;;;;;;;;5008687;28;20057;-67
2021/12/24 12:26:31;;;;;;;23.65;5.90;;;;;;;;;;5015910;28;20242;-67
2021/12/24 12:29:16;;;;;;;19.55;6.85;;;;;;;;;;5000069;28;20041;-67
2021/12/24 12:31:43;;;;;;;20.45;6.68;;;;;;;;;;5018274;28;20053;-67
2021/12/24 12:34:45;;;;;;;24.80;7.13;;;;;;;;;;5006067;28;20049;-67
2021/12/24 12:37:12;;;;;;;18.30;7.30;;;;;;;;;;4951345;28;20296;-67
2021/12/24 12:39:38;;;;;;;17.23;8.00;;;;;;;;;;4950697;28;20093;-67
2021/12/24 12:42:05;;;;;;;28.63;8.73;;;;;;;;;;4957403;28;20057;-67
2021/12/24 12:44:32;;;;;;;23.50;8.18;;;;;;;;;;4959588;28;20502;-67
2021/12/24 12:47:09;;;;;;;24.20;9.02;;;;;;;;;;4952668;28;20621;-67
2021/12/24 12:49:36;;;;;;;24.23;8.70;;;;;;;;;;4960273;28;20058;-67
2021/12/24 12:52:13;;;;;;;26.02;9.20;;;;;;;;;;4946797;28;20738;-67
2021/12/24 12:54:47;;;;;;;23.63;8.18;;;;;;;;;;4945605;28;20450;-67
2021/12/24 12:57:24;;;;;;;25.80;8.77;;;;;;;;;;4938452;28;20486;-67
2021/12/24 13:00:08;;;;;;;26.08;8.93;;;;;;;;;;4958354;28;20047;-67
2021/12/24 13:03:07;;;;;;;25.73;9.30;;;;;;;;;;4950851;28;20421;-67
2021/12/24 13:05:39;;;;;;;19.92;8.75;;;;;;;;;;4944521;28;20142;-67
2021/12/24 13:08:10;;;;;;;17.70;8.15;;;;;;;;;;4954163;28;20098;-67
2021/12/24 13:10:36;;;;;;;17.38;7.63;;;;;;;;;;4963005;28;20897;-68
2021/12/24 13:13:03;;;;;;;17.52;7.63;;;;;;;;;;5019620;28;20056;-68
2021/12/24 13:15:30;;;;;;;27.13;8.90;;;;;;;;;;4994319;28;20049;-68
2021/12/24 13:18:02;;;;;;;21.38;8.27;;;;;;;;;;5007564;28;20038;-68
2021/12/24 13:20:55;;;;;;;21.83;8.15;;;;;;;;;;4987164;28;20844;-68
2021/12/24 13:23:18;;;;;;;24.50;8.65;;;;;;;;;;5003299;28;20050;-69
2021/12/24 13:25:44;;;;;;;23.17;8.02;;;;;;;;;;4997453;28;20072;-68
2021/12/24 13:28:11;;;;;;;20.38;8.32;;;;;;;;;;5010905;28;20058;-68
2021/12/24 13:30:37;;;;;;;25.40;8.43;;;;;;;;;;5017687;28;20050;-70
2021/12/24 13:33:07;;;;;;;25.80;9.00;;;;;;;;;;5007631;28;20060;-67
2021/12/24 13:35:41;;;;;;;20.67;7.85;;;;;;;;;;5016127;28;20060;-67
2021/12/24 13:38:11;;;;;;;24.58;7.47;;;;;;;;;;5012387;28;20052;-66
2021/12/24 13:40:38;;;;;;;22.15;8.23;;;;;;;;;;5016774;28;20057;-67
2021/12/24 13:43:06;;;;;;;24.63;9.32;;;;;;;;;;5012885;28;20484;-67
2021/12/24 13:45:33;;;;;;;;;;;;;;;;;;5021823;28;20061;-67
2021/12/24 13:48:07;;;;;;;23.88;9.20;;;;;;;;;;4999957;28;19973;-67
2021/12/24 13:56:07;;;;;;;25.63;9.20;;;;;;;;;;4989345;28;20061;-67
2021/12/24 13:58:33;;;;;;;18.50;8.07;;;;;;;;;;5007883;28;20773;-68
2021/12/24 14:01:00;;;;;;;21.27;9.00;;;;;;;;;;4994472;28;20439;-67
2021/12/24 14:03:29;;;;;;;21.88;8.60;;;;;;;;;;5014330;28;20413;-67
2021/12/24 14:05:58;;;;;;;26.42;8.85;;;;;;;;;;5007547;28;20175;-67
2021/12/24 14:08:25;;;;;;;20.38;8.82;;;;;;;;;;5012943;28;20057;-68
2021/12/24 14:11:04;;;;;;;27.50;9.10;;;;;;;;;;5018841;28;20060;-67
2021/12/24 14:13:34;;;;;;;;;;;;;;;;;;4998518;28;20068;-67
2021/12/24 14:24:06;;;;;;;24.58;8.50;;;;;;;;;;4998695;28;20056;-67
2021/12/24 14:26:34;;;;;;;21.67;8.68;;;;;;;;;;5020050;28;20427;-67
2021/12/24 14:29:05;;;;;;;20.90;9.02;;;;;;;;;;5005146;28;20049;-67
2021/12/24 14:31:50;;;;;;;18.65;8.40;;;;;;;;;;4999485;28;20044;-67
2021/12/24 14:34:31;;;;;;;17.67;7.85;;;;;;;;;;4994735;28;20046;-67
2021/12/24 14:37:00;;;;;;;21.13;8.70;;;;;;;;;;5008871;28;20058;-67
2021/12/24 14:39:32;;;;;;;27.80;9.77;;;;;;;;;;5017735;28;20522;-67
2021/12/24 14:42:12;;;;;;;17.88;8.75;;;;;;;;;;5017361;28;20546;-67
2021/12/24 14:44:39;;;;;;;25.55;10.45;;;;;;;;;;5004634;28;20053;-69
2021/12/24 14:47:05;;;;;;;25.38;11.82;;;;;;;;;;5008739;28;20045;-67
2021/12/24 14:49:33;;;;;;;23.33;10.13;;;;;;;;;;5014280;28;20419;-67
2021/12/24 14:52:15;;;;;;;22.65;10.30;;;;;;;;;;5004041;28;20076;-67
2021/12/24 14:55:00;;;;;;;26.17;9.80;;;;;;;;;;5008607;28;20050;-67
2021/12/24 14:57:26;;;;;;;25.25;10.57;;;;;;;;;;5006034;28;20092;-67
2021/12/24 14:59:52;;;;;;;21.10;9.68;;;;;;;;;;5013288;28;20751;-67
2021/12/24 15:02:19;;;;;;;26.48;11.48;;;;;;;;;;5015186;28;20053;-67
2021/12/24 15:04:54;;;;;;;23.75;9.77;;;;;;;;;;5011015;28;20111;-67
2021/12/24 15:07:28;;;;;;;31.65;12.73;;;;;;;;;;5018791;28;20061;-68
2021/12/24 15:10:11;;;;;;;32.58;18.75;;;;;;;;;;5004934;28;20049;-68
2021/12/24 15:12:47;;;;;;;20.88;10.55;;;;;;;;;;4998090;28;20075;-68
2021/12/24 15:15:13;;;;;;;25.13;11.82;;;;;;;;;;5009413;28;20111;-68
2021/12/24 15:17:40;;;;;;;22.95;10.63;;;;;;;;;;5016644;28;20073;-68
2021/12/24 15:20:07;;;;;;;18.95;8.90;;;;;;;;;;5010324;28;20046;-68
2021/12/24 15:22:34;;;;;;;17.10;9.30;;;;;;;;;;5018906;28;20049;-69
2021/12/24 15:25:01;;;;;;;20.70;9.57;;;;;;;;;;5014341;28;20058;-68
2021/12/24 15:27:32;;;;;;;18.35;7.45;;;;;;;;;;4999948;28;20124;-68
2021/12/24 15:30:00;;;;;;;13.93;8.05;;;;;;;;;;5018421;28;20049;-68
2021/12/24 15:32:27;;;;;;;16.80;9.02;;;;;;;;;;5010985;28;20421;-68
2021/12/24 15:34:53;;;;;;;15.25;8.52;;;;;;;;;;5018512;28;20049;-68
2021/12/24 15:37:20;;;;;;;18.08;9.20;;;;;;;;;;5010444;28;20053;-68
2021/12/24 15:39:46;;;;;;;11.68;5.47;;;;;;;;;;5008462;28;20053;-68
2021/12/24 15:42:13;;;;;;;8.35;4.32;;;;;;;;;;5013001;28;20838;-68
2021/12/24 15:44:45;;;;;;;6.40;3.25;;;;;;;;;;5011549;28;20403;-68
2021/12/24 15:47:11;;;;;;;10.60;3.00;;;;;;;;;;5019671;28;20109;-69
2021/12/24 15:49:37;;;;;;;4.80;2.58;;;;;;;;;;5008068;28;20059;-67
2021/12/24 15:52:04;;;;;;;9.30;2.80;;;;;;;;;;4998115;28;20111;-69
2021/12/24 15:54:31;;;;;;;6.32;2.35;;;;;;;;;;4998219;28;20060;-68
2021/12/24 15:56:57;;;;;;;1.90;1.67;;;;;;;;;;5005306;28;20049;-68
2021/12/24 15:59:25;;;;;;;4.78;2.10;;;;;;;;;;5014989;28;20478;-68
2021/12/24 16:01:52;;;;;;;4.93;2.13;;;;;;;;;;5008582;28;20053;-68
2021/12/24 16:04:19;;;;;;;2.65;1.73;;;;;;;;;;5014276;28;20056;-68
2021/12/24 16:06:45;;;;;;;2.08;1.50;;;;;;;;;;5005671;28;20064;-68
2021/12/24 16:09:11;;;;;;;5.57;1.90;;;;;;;;;;5018089;28;20049;-68
2021/12/24 16:11:37;;;;;;;4.43;2.00;;;;;;;;;;5012584;28;20825;-68
2021/12/24 16:14:04;;;;;;;2.95;1.70;;;;;;;;;;5020759;28;21179;-68
2021/12/24 16:16:30;;;;;;;2.42;1.60;;;;;;;;;;5021442;28;20045;-68
2021/12/24 16:18:56;;;;;;;4.03;1.92;;;;;;;;;;5011053;28;20060;-68
2021/12/24 16:21:23;;;;;;;2.60;1.88;;;;;;;;;;5014687;28;20049;-68
2021/12/24 16:23:49;;;;;;;2.53;1.80;;;;;;;;;;5009117;28;20068;-68
2021/12/24 16:26:15;;;;;;;3.05;2.28;;;;;;;;;;5020844;28;20060;-68
2021/12/24 16:28:42;;;;;;;3.78;2.08;;;;;;;;;;5012127;28;20053;-68
2021/12/24 16:31:08;;;;;;;3.40;1.90;;;;;;;;;;5021082;28;20141;-67
2021/12/24 16:33:34;;;;;;;3.78;2.35;;;;;;;;;;5016666;28;20603;-68
2021/12/24 16:36:00;;;;;;;5.22;2.08;;;;;;;;;;5006635;28;20057;-68
2021/12/24 16:38:27;;;;;;;4.53;2.20;;;;;;;;;;5020898;28;20426;-68
2021/12/24 16:40:54;;;;;;;3.50;2.38;;;;;;;;;;5004817;28;20061;-67
2021/12/24 16:43:20;;;;;;;4.32;2.60;;;;;;;;;;5014183;28;20589;-68
2021/12/24 16:45:49;;;;;;;4.25;2.85;;;;;;;;;;5010570;28;20497;-67